Time;durP1;ratioP1;P1;durP2;ratioP2;P2;SDS_P1;SDS_P2;PMS_P1;PMS_P2;Temp;Humidity;BMP_temperature;BMP_pressure;BME280_temperature;BME280_humidity;BME280_pressure;Samples;Min_cycle;Max_cycle;Signal;HPM_P1;HPM_P2
2022/09/04 00:01:29;;;;;;;2.70;1.80;;;;;;;;;;4967680;28;20696;-85
2022/09/04 00:05:00;;;;;;;2.53;1.60;;;;;;;;;;4972555;28;20190;-85
2022/09/04 00:08:39;;;;;;;2.20;1.70;;;;;;;;;;4960907;28;20210;-85
2022/09/04 00:12:03;;;;;;;1.73;1.47;;;;;;;;;;4961376;28;20218;-85
2022/09/04 00:15:15;;;;;;;1.80;1.57;;;;;;;;;;4983498;28;20625;-85
2022/09/04 00:18:29;;;;;;;5.13;1.93;;;;;;;;;;4961054;28;20178;-85
2022/09/04 00:21:56;;;;;;;2.53;1.70;;;;;;;;;;4972035;28;20226;-85
2022/09/04 00:25:10;;;;;;;4.20;1.80;;;;;;;;;;4961180;28;20182;-85
2022/09/04 00:28:24;;;;;;;2.47;1.77;;;;;;;;;;4971982;28;20206;-84
2022/09/04 00:31:43;;;;;;;5.10;2.07;;;;;;;;;;4971507;28;20233;-85
2022/09/04 00:35:06;;;;;;;1.87;1.67;;;;;;;;;;4971997;28;20194;-85
2022/09/04 00:38:30;;;;;;;4.03;1.70;;;;;;;;;;4971760;28;20186;-85
2022/09/04 00:41:59;;;;;;;4.40;1.90;;;;;;;;;;4982590;28;20218;-85
2022/09/04 00:45:27;;;;;;;2.90;2.47;;;;;;;;;;4994258;28;20182;-85
2022/09/04 00:49:06;;;;;;;2.47;1.90;;;;;;;;;;4960662;28;20237;-85
2022/09/04 00:52:39;;;;;;;1.87;1.73;;;;;;;;;;4971060;28;20225;-85
2022/09/04 00:56:20;;;;;;;5.63;2.17;;;;;;;;;;4960576;28;20187;-85
2022/09/04 00:59:33;;;;;;;2.70;2.20;;;;;;;;;;4960382;28;20186;-85
2022/09/04 01:02:58;;;;;;;4.43;2.20;;;;;;;;;;4960238;28;20213;-85
2022/09/04 01:06:17;;;;;;;2.97;1.90;;;;;;;;;;4960455;28;20182;-84
2022/09/04 01:09:41;;;;;;;2.77;2.23;;;;;;;;;;4971068;28;20202;-85
2022/09/04 01:12:56;;;;;;;2.00;1.60;;;;;;;;;;4960356;28;20570;-85
2022/09/04 01:16:22;;;;;;;2.50;1.87;;;;;;;;;;4982299;28;20182;-85
2022/09/04 01:19:39;;;;;;;2.40;2.00;;;;;;;;;;4960350;28;20224;-85
2022/09/04 01:23:04;;;;;;;2.47;2.20;;;;;;;;;;4959700;28;20213;-85
2022/09/04 01:26:47;;;;;;;2.33;2.10;;;;;;;;;;4982189;28;20186;-85
2022/09/04 01:30:12;;;;;;;2.33;1.60;;;;;;;;;;4971439;28;20507;-85
2022/09/04 01:33:41;;;;;;;2.47;1.90;;;;;;;;;;4960217;28;20182;-85
2022/09/04 01:37:11;;;;;;;2.27;1.77;;;;;;;;;;4960206;28;20174;-84
2022/09/04 01:40:40;;;;;;;2.20;1.77;;;;;;;;;;4971194;28;20182;-85
2022/09/04 01:43:44;;;;;;;4.97;1.77;;;;;;;;;;4960237;28;20182;-85
2022/09/04 01:47:25;;;;;;;2.30;2.10;;;;;;;;;;4959995;28;20202;-85
2022/09/04 01:50:31;;;;;;;3.57;2.20;;;;;;;;;;4959920;28;20178;-85
2022/09/04 01:53:40;;;;;;;3.70;2.37;;;;;;;;;;4970736;28;20183;-85
2022/09/04 01:56:56;;;;;;;3.10;2.13;;;;;;;;;;4960092;28;20186;-85
2022/09/04 02:00:30;;;;;;;3.53;2.03;;;;;;;;;;4970997;28;20183;-85
2022/09/04 02:03:40;;;;;;;3.87;2.13;;;;;;;;;;4970808;28;20202;-85
2022/09/04 02:06:53;;;;;;;2.60;2.10;;;;;;;;;;4971086;28;20187;-84
2022/09/04 02:10:28;;;;;;;5.00;2.27;;;;;;;;;;4970790;28;20183;-85
2022/09/04 02:14:03;;;;;;;3.30;1.80;;;;;;;;;;4981850;28;20302;-85
2022/09/04 02:17:17;;;;;;;3.07;2.03;;;;;;;;;;4959756;28;20625;-85
2022/09/04 02:20:25;;;;;;;3.10;1.57;;;;;;;;;;4970589;28;20186;-85
2022/09/04 02:23:37;;;;;;;2.73;1.67;;;;;;;;;;4959572;28;20179;-85
2022/09/04 02:26:51;;;;;;;2.80;1.60;;;;;;;;;;4970655;28;20186;-85
2022/09/04 02:30:06;;;;;;;3.10;2.13;;;;;;;;;;4984441;28;20198;-85
2022/09/04 02:33:17;;;;;;;3.27;2.17;;;;;;;;;;4973808;28;20590;-85
2022/09/04 02:36:50;;;;;;;4.63;2.73;;;;;;;;;;4974248;28;20190;-85
2022/09/04 02:40:12;;;;;;;3.40;3.00;;;;;;;;;;4974251;28;20174;-84
2022/09/04 02:43:22;;;;;;;5.27;3.00;;;;;;;;;;4963566;28;20182;-85
2022/09/04 02:46:46;;;;;;;5.23;2.90;;;;;;;;;;4962802;28;20182;-85
2022/09/04 02:49:55;;;;;;;2.60;2.03;;;;;;;;;;4962774;28;20171;-86
2022/09/04 02:53:24;;;;;;;4.93;2.60;;;;;;;;;;4962399;28;20214;-86
2022/09/04 02:56:57;;;;;;;3.10;2.57;;;;;;;;;;4973524;28;20522;-86
2022/09/04 03:00:14;;;;;;;3.50;2.30;;;;;;;;;;4973422;28;20186;-85
2022/09/04 03:03:33;;;;;;;3.17;2.87;;;;;;;;;;4973415;28;20202;-86
2022/09/04 03:06:50;;;;;;;4.20;2.70;;;;;;;;;;4973260;28;20514;-86
2022/09/04 03:10:05;;;;;;;3.77;3.20;;;;;;;;;;4973414;28;20175;-86
2022/09/04 03:13:18;;;;;;;5.30;2.90;;;;;;;;;;4973375;28;20182;-85
2022/09/04 03:16:39;;;;;;;4.93;3.07;;;;;;;;;;4972992;28;20190;-85
2022/09/04 03:19:54;;;;;;;4.37;2.93;;;;;;;;;;4962192;28;20212;-85
2022/09/04 03:23:14;;;;;;;2.90;2.47;;;;;;;;;;4972823;28;20222;-86
2022/09/04 03:26:26;;;;;;;4.53;3.20;;;;;;;;;;4962275;28;20182;-86
2022/09/04 03:29:39;;;;;;;4.63;2.60;;;;;;;;;;4972796;28;20214;-85
2022/09/04 03:32:53;;;;;;;2.73;2.37;;;;;;;;;;5006424;23;20707;-88
2022/09/04 03:36:14;;;;;;;6.93;3.30;;;;;;;;;;4992645;28;20174;-88
2022/09/04 03:39:33;;;;;;;3.40;2.77;;;;;;;;;;4992319;28;20174;-88
2022/09/04 03:42:51;;;;;;;3.10;2.80;;;;;;;;;;4992251;28;20213;-88
2022/09/04 03:46:30;;;;;;;6.37;3.13;;;;;;;;;;4992400;28;20526;-88
2022/09/04 03:50:05;;;;;;;4.60;2.47;;;;;;;;;;4985202;28;20225;-90
2022/09/04 03:53:42;;;;;;;3.17;2.60;;;;;;;;;;4992248;28;20217;-87
2022/09/04 03:56:58;;;;;;;7.57;2.70;;;;;;;;;;5003233;28;20181;-88
2022/09/04 04:00:08;;;;;;;3.80;2.80;;;;;;;;;;5003405;28;20632;-90
2022/09/04 04:03:55;;;;;;;3.73;2.90;;;;;;;;;;5002001;28;20696;-90
2022/09/04 04:07:18;;;;;;;3.43;2.60;;;;;;;;;;4980776;28;20186;-89
2022/09/04 04:10:57;;;;;;;3.40;2.40;;;;;;;;;;4992426;28;20174;-89
2022/09/04 04:14:20;;;;;;;3.73;2.57;;;;;;;;;;5003167;28;20177;-90
2022/09/04 04:17:46;;;;;;;5.23;3.37;;;;;;;;;;4991429;28;20189;-90
2022/09/04 04:21:07;;;;;;;3.83;3.10;;;;;;;;;;4991783;28;20178;-90
2022/09/04 04:24:41;;;;;;;3.00;2.70;;;;;;;;;;5002696;28;20537;-89
2022/09/04 04:28:00;;;;;;;3.70;3.30;;;;;;;;;;4991573;28;20177;-89
2022/09/04 04:31:33;;;;;;;4.60;3.07;;;;;;;;;;4991182;28;20521;-90
2022/09/04 04:34:53;;;;;;;4.07;3.10;;;;;;;;;;4980298;28;20182;-90
2022/09/04 04:38:11;;;;;;;4.43;2.80;;;;;;;;;;4991268;28;20529;-90
2022/09/04 04:41:27;;;;;;;3.93;2.80;;;;;;;;;;5013935;28;20182;-89
2022/09/04 04:48:52;;;;;;;4.77;2.90;;;;;;;;;;5002107;28;20213;-90
2022/09/04 04:52:16;;;;;;;4.03;2.60;;;;;;;;;;5002301;28;20218;-90
2022/09/04 04:55:48;;;;;;;8.70;3.00;;;;;;;;;;5002407;28;20173;-89
2022/09/04 04:59:22;;;;;;;5.10;2.97;;;;;;;;;;5002725;28;20182;-90
2022/09/04 05:02:35;;;;;;;4.33;3.40;;;;;;;;;;4990946;28;20680;-90
2022/09/04 05:06:00;;;;;;;7.47;3.50;;;;;;;;;;5002668;28;20177;-89
2022/09/04 05:09:57;;;;;;;4.90;3.93;;;;;;;;;;4979775;28;20209;-89
2022/09/04 05:13:30;;;;;;;4.63;3.20;;;;;;;;;;4951048;28;20218;-89
2022/09/04 05:16:47;;;;;;;4.40;3.57;;;;;;;;;;4958119;28;20205;-89
2022/09/04 05:19:57;;;;;;;3.43;3.13;;;;;;;;;;4979893;28;20182;-89
2022/09/04 05:23:29;;;;;;;4.80;3.20;;;;;;;;;;4991140;28;20221;-90
2022/09/04 05:27:30;;;;;;;3.53;2.97;;;;;;;;;;5003218;28;20178;-89
2022/09/04 05:30:48;;;;;;;7.10;2.73;;;;;;;;;;4992003;28;20169;-91
2022/09/04 05:34:05;;;;;;;1.97;1.77;;;;;;;;;;4991562;28;20181;-87
2022/09/04 05:37:10;;;;;;;6.30;3.17;;;;;;;;;;4991490;28;20186;-88
2022/09/04 05:40:28;;;;;;;7.37;2.73;;;;;;;;;;5002073;28;20181;-90
2022/09/04 05:43:39;;;;;;;3.63;2.93;;;;;;;;;;4979940;28;20182;-90
2022/09/04 05:47:04;;;;;;;6.03;3.43;;;;;;;;;;4990601;28;20193;-90
2022/09/04 05:50:21;;;;;;;13.33;4.47;;;;;;;;;;4990909;28;20545;-89
2022/09/04 05:53:28;;;;;;;5.87;3.60;;;;;;;;;;4990737;28;20182;-89
2022/09/04 05:56:57;;;;;;;12.50;3.00;;;;;;;;;;4990670;28;20252;-89
2022/09/04 06:00:10;;;;;;;4.87;3.30;;;;;;;;;;4991245;28;20178;-90
2022/09/04 06:03:38;;;;;;;5.93;3.40;;;;;;;;;;5001988;28;20704;-89
2022/09/04 06:07:10;;;;;;;6.13;2.97;;;;;;;;;;5005975;28;20186;-89
2022/09/04 06:10:46;;;;;;;5.17;2.87;;;;;;;;;;4983510;28;20205;-89
2022/09/04 06:14:33;;;;;;;14.33;3.73;;;;;;;;;;5005855;28;20181;-89
2022/09/04 06:17:47;;;;;;;5.07;3.10;;;;;;;;;;4951530;28;20184;-89
2022/09/04 06:21:02;;;;;;;5.23;3.47;;;;;;;;;;5005557;28;20625;-90
2022/09/04 06:24:25;;;;;;;6.30;3.90;;;;;;;;;;5005440;28;20181;-90
2022/09/04 06:28:00;;;;;;;10.50;4.03;;;;;;;;;;4994042;28;20178;-89
2022/09/04 06:31:38;;;;;;;5.27;3.37;;;;;;;;;;5004871;28;20210;-89
2022/09/04 06:35:05;;;;;;;4.87;3.53;;;;;;;;;;4982872;28;20198;-90
2022/09/04 06:38:21;;;;;;;6.73;3.90;;;;;;;;;;5004954;28;20185;-89
2022/09/04 06:41:42;;;;;;;5.67;3.30;;;;;;;;;;4988705;28;20217;-90
2022/09/04 06:45:34;;;;;;;7.33;3.57;;;;;;;;;;4985012;28;20187;-90
2022/09/04 06:49:00;;;;;;;9.30;2.70;;;;;;;;;;4981218;28;20209;-89
2022/09/04 06:52:28;;;;;;;3.10;2.30;;;;;;;;;;4994919;28;20225;-89
2022/09/04 06:55:41;;;;;;;3.57;2.20;;;;;;;;;;5013459;28;20513;-89
2022/09/04 06:59:17;;;;;;;7.80;2.47;;;;;;;;;;5024178;28;20177;-89
2022/09/04 07:02:53;;;;;;;3.30;2.43;;;;;;;;;;4991862;28;20565;-90
2022/09/04 07:06:05;;;;;;;2.73;2.50;;;;;;;;;;4963137;28;20178;-90
2022/09/04 07:09:22;;;;;;;2.97;2.20;;;;;;;;;;4973672;28;20317;-89
2022/09/04 07:12:57;;;;;;;2.47;2.13;;;;;;;;;;4984748;28;20586;-91
2022/09/04 07:16:33;;;;;;;2.83;2.40;;;;;;;;;;4984006;28;20182;-92
2022/09/04 07:20:08;;;;;;;14.70;3.90;;;;;;;;;;4985376;28;20634;-91
2022/09/04 07:23:22;;;;;;;5.03;2.50;;;;;;;;;;4984773;28;20218;-90
2022/09/04 07:26:48;;;;;;;3.30;2.77;;;;;;;;;;4995728;28;20186;-85
2022/09/04 07:30:06;;;;;;;3.60;2.47;;;;;;;;;;4973367;28;20206;-85
2022/09/04 07:33:19;;;;;;;2.37;2.17;;;;;;;;;;4973388;28;20226;-85
2022/09/04 07:36:34;;;;;;;14.13;7.87;;;;;;;;;;4984336;28;20194;-87
2022/09/04 07:39:53;;;;;;;8.13;5.60;;;;;;;;;;4962794;28;20179;-85
2022/09/04 07:43:45;;;;;;;5.23;3.37;;;;;;;;;;4984179;28;20214;-86
2022/09/04 07:47:29;;;;;;;12.20;3.70;;;;;;;;;;4984210;28;20190;-86
2022/09/04 07:50:47;;;;;;;7.30;3.63;;;;;;;;;;4965097;28;20225;-85
2022/09/04 07:54:07;;;;;;;2.73;2.30;;;;;;;;;;4981066;28;20198;-86
2022/09/04 07:57:24;;;;;;;6.80;2.97;;;;;;;;;;5003814;28;20185;-86
2022/09/04 08:00:35;;;;;;;2.87;2.20;;;;;;;;;;5003335;28;20174;-86
2022/09/04 08:03:57;;;;;;;3.63;2.50;;;;;;;;;;4983916;28;20182;-86
2022/09/04 08:07:06;;;;;;;6.07;2.53;;;;;;;;;;4984146;28;20183;-85
2022/09/04 08:10:35;;;;;;;2.50;2.10;;;;;;;;;;4989696;28;20221;-86
2022/09/04 08:14:08;;;;;;;2.40;2.20;;;;;;;;;;5003203;28;20181;-86
2022/09/04 08:17:32;;;;;;;8.63;2.70;;;;;;;;;;4991903;28;20542;-84
2022/09/04 08:20:55;;;;;;;9.90;4.27;;;;;;;;;;4991476;28;20209;-85
2022/09/04 08:24:35;;;;;;;6.40;5.17;;;;;;;;;;5003791;28;20191;-86
2022/09/04 08:27:46;;;;;;;4.67;1.97;;;;;;;;;;4991726;28;20186;-86
2022/09/04 08:31:06;;;;;;;3.87;2.60;;;;;;;;;;4991960;28;20658;-87
2022/09/04 08:34:22;;;;;;;6.83;2.60;;;;;;;;;;4987907;28;20203;-86
2022/09/04 08:38:04;;;;;;;2.93;2.50;;;;;;;;;;4985107;28;20195;-86
2022/09/04 08:41:29;;;;;;;5.50;2.60;;;;;;;;;;4991309;28;20206;-85
2022/09/04 08:44:35;;;;;;;3.93;2.27;;;;;;;;;;4991155;28;20210;-86
2022/09/04 08:48:13;;;;;;;3.63;2.17;;;;;;;;;;4990371;28;20194;-87
2022/09/04 08:51:29;;;;;;;5.13;2.63;;;;;;;;;;4997212;28;20220;-86
2022/09/04 08:59:36;;;;;;;2.77;2.13;;;;;;;;;;4984238;28;20185;-92
2022/09/04 09:03:14;;;;;;;3.03;2.20;;;;;;;;;;4970117;28;20209;-87
2022/09/04 09:06:55;;;;;;;4.80;2.50;;;;;;;;;;4970123;28;20524;-87
2022/09/04 09:10:22;;;;;;;2.83;2.53;;;;;;;;;;4970477;28;20208;-87
2022/09/04 09:14:08;;;;;;;4.38;2.92;;;;;;;;;;4970241;28;20183;-87
2022/09/04 09:17:38;;;;;;;3.95;3.05;;;;;;;;;;4972443;28;20187;-87
2022/09/04 09:21:28;;;;;;;3.63;2.60;;;;;;;;;;4983735;28;20526;-87
2022/09/04 09:25:03;;;;;;;4.03;2.97;;;;;;;;;;4978689;28;20204;-86
2022/09/04 09:28:16;;;;;;;7.85;2.88;;;;;;;;;;4985784;28;20187;-87
2022/09/04 09:32:05;;;;;;;13.23;2.83;;;;;;;;;;4982593;28;20328;-87
2022/09/04 09:35:54;;;;;;;3.95;2.92;;;;;;;;;;4994151;28;20184;-87
2022/09/04 09:39:26;;;;;;;2.72;2.22;;;;;;;;;;4973069;28;20188;-87
2022/09/04 09:42:43;;;;;;;3.45;2.65;;;;;;;;;;4975179;28;20219;-87
2022/09/04 09:46:15;;;;;;;3.92;2.90;;;;;;;;;;4986229;28;20185;-87
2022/09/04 09:49:37;;;;;;;3.35;2.53;;;;;;;;;;4986432;28;20184;-87
2022/09/04 09:53:20;;;;;;;3.33;2.55;;;;;;;;;;4977120;28;20218;-87
2022/09/04 09:56:34;;;;;;;4.03;2.50;;;;;;;;;;4985942;28;20665;-87
2022/09/04 09:59:58;;;;;;;3.58;3.00;;;;;;;;;;4974655;28;20194;-86
2022/09/04 10:03:29;;;;;;;4.90;2.70;;;;;;;;;;4975013;28;20574;-86
2022/09/04 10:07:01;;;;;;;3.97;2.15;;;;;;;;;;4963731;28;20186;-86
2022/09/04 10:10:40;;;;;;;3.38;2.45;;;;;;;;;;4988181;28;20214;-87
2022/09/04 10:14:26;;;;;;;3.58;2.42;;;;;;;;;;4974869;28;20182;-86
2022/09/04 10:17:53;;;;;;;3.42;1.90;;;;;;;;;;4911926;28;20182;-86
2022/09/04 10:21:19;;;;;;;3.40;2.88;;;;;;;;;;4986070;28;20183;-87
2022/09/04 10:24:45;;;;;;;2.63;2.42;;;;;;;;;;4974596;28;20507;-86
2022/09/04 10:28:08;;;;;;;2.42;2.22;;;;;;;;;;4985540;28;20182;-86
2022/09/04 10:31:43;;;;;;;4.70;2.05;;;;;;;;;;4985587;28;20669;-86
2022/09/04 10:35:24;;;;;;;14.65;3.08;;;;;;;;;;4985678;28;20199;-86
2022/09/04 10:38:36;;;;;;;5.80;1.88;;;;;;;;;;4987224;28;20557;-86
2022/09/04 10:41:49;;;;;;;2.08;1.65;;;;;;;;;;4996279;28;20214;-87
2022/09/04 10:45:14;;;;;;;2.00;1.60;;;;;;;;;;4963621;28;20650;-86
2022/09/04 10:48:38;;;;;;;2.85;1.40;;;;;;;;;;4995353;28;20183;-86
2022/09/04 10:52:11;;;;;;;2.95;1.52;;;;;;;;;;4973711;28;20565;-86
2022/09/04 10:55:55;;;;;;;8.82;1.77;;;;;;;;;;4985213;28;20630;-85
2022/09/04 10:59:32;;;;;;;2.90;1.27;;;;;;;;;;4985234;28;20182;-87
2022/09/04 11:02:36;;;;;;;3.95;1.48;;;;;;;;;;4984702;28;20217;-86
2022/09/04 11:06:15;;;;;;;1.40;1.30;;;;;;;;;;4974146;28;20187;-87
2022/09/04 11:09:38;;;;;;;1.65;1.15;;;;;;;;;;4973453;28;20178;-87
2022/09/04 11:12:56;;;;;;;1.90;1.23;;;;;;;;;;4984645;28;20226;-87
2022/09/04 11:16:30;;;;;;;1.80;1.38;;;;;;;;;;4985115;28;20187;-85
2022/09/04 11:20:11;;;;;;;1.52;1.02;;;;;;;;;;4974705;28;20190;-87
2022/09/04 11:23:34;;;;;;;1.55;1.30;;;;;;;;;;4984317;28;20218;-87
2022/09/04 11:27:06;;;;;;;1.27;1.17;;;;;;;;;;4986362;28;20199;-87
2022/09/04 11:30:19;;;;;;;1.30;1.20;;;;;;;;;;4995625;28;20221;-87
2022/09/04 11:33:35;;;;;;;1.60;1.50;;;;;;;;;;4983310;28;20213;-86
2022/09/04 11:37:08;;;;;;;2.15;1.60;;;;;;;;;;5003794;28;20673;-87
2022/09/04 11:40:36;;;;;;;1.85;1.33;;;;;;;;;;5004688;28;20186;-87
2022/09/04 11:44:09;;;;;;;2.75;1.58;;;;;;;;;;5003785;28;20181;-86
2022/09/04 11:47:31;;;;;;;1.25;0.90;;;;;;;;;;4994143;28;21199;-86
2022/09/04 11:50:44;;;;;;;1.15;0.90;;;;;;;;;;4985497;28;20210;-86
2022/09/04 11:54:10;;;;;;;1.58;1.10;;;;;;;;;;4972879;28;20190;-87
2022/09/04 11:57:56;;;;;;;1.45;1.13;;;;;;;;;;4983894;28;20187;-87
2022/09/04 12:01:35;;;;;;;2.28;0.93;;;;;;;;;;4982861;28;20175;-87
2022/09/04 12:04:55;;;;;;;1.35;0.90;;;;;;;;;;4961898;28;20183;-87
2022/09/04 12:08:17;;;;;;;1.63;1.13;;;;;;;;;;4994744;28;20183;-88
2022/09/04 12:11:50;;;;;;;1.73;1.00;;;;;;;;;;4983729;28;20233;-87
2022/09/04 12:15:24;;;;;;;2.35;0.90;;;;;;;;;;4984225;28;20202;-87
2022/09/04 12:19:08;;;;;;;36.45;3.85;;;;;;;;;;4999549;22;20710;-78
2022/09/04 12:22:33;;;;;;;1.98;1.02;;;;;;;;;;5046537;28;20221;-78
2022/09/04 12:25:57;;;;;;;5.78;4.75;;;;;;;;;;5049010;28;20185;-79
2022/09/04 12:29:14;;;;;;;1.50;1.10;;;;;;;;;;5037305;28;20185;-79
2022/09/04 12:32:21;;;;;;;1.58;0.90;;;;;;;;;;5047675;28;20228;-78
2022/09/04 12:35:41;;;;;;;1.17;1.00;;;;;;;;;;5025736;28;20176;-79
2022/09/04 12:39:00;;;;;;;1.33;0.93;;;;;;;;;;5047357;28;20181;-78
2022/09/04 12:42:13;;;;;;;1.73;1.20;;;;;;;;;;5035724;28;20212;-78
2022/09/04 12:45:44;;;;;;;0.85;0.82;;;;;;;;;;5047376;28;20177;-78
2022/09/04 12:49:28;;;;;;;2.08;0.90;;;;;;;;;;5063019;28;20525;-78
2022/09/04 12:52:59;;;;;;;1.00;0.90;;;;;;;;;;5047350;28;20208;-78
2022/09/04 12:56:14;;;;;;;0.93;0.82;;;;;;;;;;5048938;28;20176;-78
2022/09/04 12:59:44;;;;;;;1.88;0.70;;;;;;;;;;5037159;28;20181;-78
2022/09/04 13:03:11;;;;;;;4.22;1.00;;;;;;;;;;5025028;28;20180;-78
2022/09/04 13:06:26;;;;;;;2.20;0.80;;;;;;;;;;5035786;28;20184;-78
2022/09/04 13:09:36;;;;;;;1.58;0.90;;;;;;;;;;5058466;28;20176;-78
2022/09/04 13:12:59;;;;;;;3.38;0.80;;;;;;;;;;5035076;28;20177;-78
2022/09/04 13:16:19;;;;;;;4.97;1.50;;;;;;;;;;5047948;28;20636;-78
2022/09/04 13:19:41;;;;;;;1.70;0.80;;;;;;;;;;5035207;28;20209;-78
2022/09/04 13:22:54;;;;;;;4.25;1.10;;;;;;;;;;5058847;28;20522;-78
2022/09/04 13:26:15;;;;;;;1.42;0.73;;;;;;;;;;5035225;28;20185;-78
2022/09/04 13:29:44;;;;;;;1.17;0.90;;;;;;;;;;5046487;28;20620;-78
2022/09/04 13:32:54;;;;;;;2.15;0.93;;;;;;;;;;5035475;28;20173;-78
2022/09/04 13:36:42;;;;;;;1.85;0.80;;;;;;;;;;5046346;28;20181;-78
2022/09/04 13:40:01;;;;;;;12.30;1.20;;;;;;;;;;4958547;28;20188;-78
2022/09/04 13:43:25;;;;;;;1.95;0.88;;;;;;;;;;5034929;28;20180;-78
2022/09/04 13:46:44;;;;;;;1.75;0.90;;;;;;;;;;5035168;28;20181;-78
2022/09/04 13:50:08;;;;;;;1.48;0.80;;;;;;;;;;5036200;28;20193;-78
2022/09/04 13:53:29;;;;;;;2.08;0.95;;;;;;;;;;5060063;28;20177;-78
2022/09/04 13:56:40;;;;;;;5.05;0.82;;;;;;;;;;5046987;28;20185;-78
2022/09/04 13:59:48;;;;;;;0.68;0.68;;;;;;;;;;5034769;28;20184;-78
2022/09/04 14:03:01;;;;;;;1.33;0.70;;;;;;;;;;5046199;28;20173;-78
2022/09/04 14:06:13;;;;;;;3.42;1.10;;;;;;;;;;5047564;28;20181;-78
2022/09/04 14:09:17;;;;;;;1.73;1.00;;;;;;;;;;5022994;28;20177;-78
2022/09/04 14:12:56;;;;;;;1.27;0.75;;;;;;;;;;5047556;28;20224;-78
2022/09/04 14:16:07;;;;;;;0.75;0.70;;;;;;;;;;5013249;28;20200;-79
2022/09/04 14:19:30;;;;;;;3.00;0.80;;;;;;;;;;5035597;28;20201;-78
2022/09/04 14:22:48;;;;;;;0.77;0.77;;;;;;;;;;5023996;28;20220;-78
2022/09/04 14:26:11;;;;;;;1.50;0.80;;;;;;;;;;5027868;28;20181;-78
2022/09/04 14:29:27;;;;;;;1.05;0.75;;;;;;;;;;5050734;28;20526;-78
2022/09/04 14:32:51;;;;;;;1.65;1.00;;;;;;;;;;5063097;28;20232;-78
2022/09/04 14:36:20;;;;;;;3.63;1.17;;;;;;;;;;5050942;28;20188;-78
2022/09/04 14:39:47;;;;;;;11.40;1.77;;;;;;;;;;5039371;28;20184;-78
2022/09/04 14:43:04;;;;;;;1.58;1.10;;;;;;;;;;5039478;28;20181;-78
2022/09/04 14:46:42;;;;;;;18.15;2.25;;;;;;;;;;5029345;28;20176;-79
2022/09/04 14:49:49;;;;;;;2.50;1.00;;;;;;;;;;5039867;28;20200;-78
2022/09/04 14:52:59;;;;;;;5.32;1.10;;;;;;;;;;5039521;28;20204;-78
2022/09/04 14:56:06;;;;;;;97.97;6.18;;;;;;;;;;5039856;28;20193;-78
2022/09/04 14:59:35;;;;;;;5.30;1.40;;;;;;;;;;5039770;28;20196;-78
2022/09/04 15:02:47;;;;;;;1.73;0.73;;;;;;;;;;5038837;28;20176;-78
2022/09/04 15:06:02;;;;;;;1.75;0.90;;;;;;;;;;5039996;28;20180;-78
2022/09/04 15:09:27;;;;;;;1.17;0.68;;;;;;;;;;5050595;28;20177;-78
2022/09/04 15:12:39;;;;;;;1.45;1.00;;;;;;;;;;5039272;28;20232;-78
2022/09/04 15:15:58;;;;;;;6.10;1.00;;;;;;;;;;5039697;28;20176;-78
2022/09/04 15:19:30;;;;;;;5.63;1.48;;;;;;;;;;5039040;28;20208;-78
2022/09/04 15:22:45;;;;;;;10.90;1.70;;;;;;;;;;5050577;28;20212;-78
2022/09/04 15:26:05;;;;;;;2.17;0.90;;;;;;;;;;5040213;28;20522;-78
2022/09/04 15:29:30;;;;;;;5.70;1.05;;;;;;;;;;5051067;28;20183;-78
2022/09/04 15:32:41;;;;;;;1.05;0.90;;;;;;;;;;5026703;28;20232;-78
2022/09/04 15:36:03;;;;;;;2.28;0.93;;;;;;;;;;5036729;28;20185;-78
2022/09/04 15:39:20;;;;;;;2.67;1.05;;;;;;;;;;5050307;28;20173;-78
2022/09/04 15:42:37;;;;;;;8.60;1.23;;;;;;;;;;5038943;28;20227;-80
2022/09/04 15:45:54;;;;;;;9.95;1.42;;;;;;;;;;5039002;28;20180;-79
2022/09/04 15:49:15;;;;;;;8.70;1.10;;;;;;;;;;5040154;28;20623;-79
2022/09/04 15:52:23;;;;;;;3.90;1.20;;;;;;;;;;5040282;28;20231;-80
2022/09/04 15:55:32;;;;;;;11.40;1.20;;;;;;;;;;5037617;28;20198;-80
2022/09/04 15:58:49;;;;;;;6.38;1.38;;;;;;;;;;5051013;28;20183;-80
2022/09/04 16:01:54;;;;;;;1.75;1.00;;;;;;;;;;5049591;28;20217;-80
2022/09/04 16:05:21;;;;;;;1.98;1.00;;;;;;;;;;5038281;28;20172;-80
2022/09/04 16:08:34;;;;;;;6.07;1.38;;;;;;;;;;5050313;28;20181;-80
2022/09/04 16:11:54;;;;;;;16.55;1.98;;;;;;;;;;5050017;28;20221;-80
2022/09/04 16:15:20;;;;;;;9.75;1.77;;;;;;;;;;5039272;28;20690;-80
2022/09/04 16:19:00;;;;;;;3.85;1.02;;;;;;;;;;5060203;28;20209;-80
2022/09/04 16:22:21;;;;;;;3.97;1.00;;;;;;;;;;5047139;28;20218;-80
2022/09/04 16:25:29;;;;;;;1.60;1.00;;;;;;;;;;5033305;28;20624;-81
2022/09/04 16:28:42;;;;;;;2.58;1.40;;;;;;;;;;5035428;28;20529;-80
2022/09/04 16:31:52;;;;;;;3.25;1.20;;;;;;;;;;5037097;28;20222;-80
2022/09/04 16:35:07;;;;;;;9.02;1.67;;;;;;;;;;5038769;28;20180;-80
2022/09/04 16:38:17;;;;;;;6.25;1.50;;;;;;;;;;5024458;28;20177;-79
2022/09/04 16:41:36;;;;;;;5.72;1.25;;;;;;;;;;5052462;28;20223;-80
2022/09/04 16:44:48;;;;;;;11.00;1.15;;;;;;;;;;5030008;28;20181;-80
2022/09/04 16:47:59;;;;;;;18.38;2.30;;;;;;;;;;5040511;28;20185;-80
2022/09/04 16:51:31;;;;;;;11.47;1.83;;;;;;;;;;5052286;28;20216;-80
2022/09/04 16:54:47;;;;;;;5.07;1.20;;;;;;;;;;5040899;28;20178;-78
2022/09/04 16:58:01;;;;;;;20.93;2.90;;;;;;;;;;5040344;28;20187;-78
2022/09/04 17:01:14;;;;;;;8.00;1.23;;;;;;;;;;5051028;28;20209;-79
2022/09/04 17:04:28;;;;;;;3.93;1.30;;;;;;;;;;5040401;28;20645;-78
2022/09/04 17:07:47;;;;;;;12.10;1.57;;;;;;;;;;5050237;28;20185;-79
2022/09/04 17:11:10;;;;;;;2.47;0.97;;;;;;;;;;5039577;28;20219;-78
2022/09/04 17:14:39;;;;;;;5.00;0.90;;;;;;;;;;5037920;28;20632;-79
2022/09/04 17:17:47;;;;;;;1.47;1.00;;;;;;;;;;5050945;28;20184;-78
2022/09/04 17:22:30;;;;;;;3.27;1.10;;;;;;;;;;5027721;28;20217;-78
2022/09/04 17:25:08;;;;;;;3.77;1.20;;;;;;;;;;5038887;28;20192;-79
2022/09/04 17:28:15;;;;;;;2.00;1.10;;;;;;;;;;5037215;28;20188;-77
2022/09/04 17:31:24;;;;;;;2.60;1.20;;;;;;;;;;5031180;28;20217;-77
2022/09/04 17:34:41;;;;;;;1.40;1.00;;;;;;;;;;5046161;28;20188;-78
2022/09/04 17:37:54;;;;;;;19.93;2.30;;;;;;;;;;5045255;28;20528;-78
2022/09/04 17:41:20;;;;;;;3.00;1.20;;;;;;;;;;5032114;28;20210;-77
2022/09/04 17:44:45;;;;;;;11.37;2.20;;;;;;;;;;5032347;28;20185;-79
2022/09/04 17:48:22;;;;;;;5.83;1.03;;;;;;;;;;5023830;28;20622;-79
2022/09/04 17:51:33;;;;;;;1.60;1.23;;;;;;;;;;5031403;28;20220;-77
2022/09/04 17:54:41;;;;;;;2.87;1.20;;;;;;;;;;5030872;28;20188;-77
2022/09/04 17:58:21;;;;;;;1.50;1.00;;;;;;;;;;5042120;28;20184;-77
2022/09/04 18:01:40;;;;;;;3.73;1.20;;;;;;;;;;5045548;28;20219;-77
2022/09/04 18:04:59;;;;;;;4.73;1.40;;;;;;;;;;5058775;28;20176;-78
2022/09/04 18:08:18;;;;;;;2.57;1.30;;;;;;;;;;5048256;28;20184;-78
2022/09/04 18:11:39;;;;;;;2.10;1.33;;;;;;;;;;5036338;28;20295;-78
2022/09/04 18:15:04;;;;;;;2.40;1.17;;;;;;;;;;5056773;28;20192;-76
2022/09/04 18:18:20;;;;;;;8.33;1.53;;;;;;;;;;5047637;28;20196;-77
2022/09/04 18:21:30;;;;;;;2.50;1.57;;;;;;;;;;5044662;28;20220;-77
2022/09/04 18:24:47;;;;;;;3.50;1.50;;;;;;;;;;5057172;28;20188;-78
2022/09/04 18:28:20;;;;;;;1.50;1.40;;;;;;;;;;5033625;28;20627;-77
2022/09/04 18:31:50;;;;;;;5.13;1.80;;;;;;;;;;5023550;28;20215;-77
2022/09/04 18:35:09;;;;;;;1.90;1.50;;;;;;;;;;5046302;28;20188;-77
2022/09/04 18:38:37;;;;;;;3.23;1.90;;;;;;;;;;5057864;28;20536;-76
2022/09/04 18:41:47;;;;;;;2.10;1.67;;;;;;;;;;5022756;28;20215;-76
2022/09/04 18:44:56;;;;;;;2.97;1.50;;;;;;;;;;5044783;28;20611;-77
2022/09/04 18:48:04;;;;;;;3.30;1.80;;;;;;;;;;5032724;28;20184;-76
2022/09/04 18:51:09;;;;;;;4.50;1.60;;;;;;;;;;5056572;28;20208;-77
2022/09/04 18:54:27;;;;;;;4.10;1.80;;;;;;;;;;5043995;28;20177;-77
2022/09/04 18:57:41;;;;;;;3.60;1.80;;;;;;;;;;5044056;28;20184;-76
2022/09/04 19:00:54;;;;;;;2.77;1.60;;;;;;;;;;5043214;28;20216;-76
2022/09/04 19:04:36;;;;;;;2.30;1.77;;;;;;;;;;5032456;28;20512;-76
2022/09/04 19:07:48;;;;;;;2.13;1.90;;;;;;;;;;5031917;28;20177;-76
2022/09/04 19:10:57;;;;;;;1.60;1.40;;;;;;;;;;5056788;28;20220;-78
2022/09/04 19:14:08;;;;;;;2.43;1.80;;;;;;;;;;5033492;28;20552;-76
2022/09/04 19:17:21;;;;;;;1.83;1.73;;;;;;;;;;5042982;28;20184;-76
2022/09/04 19:20:45;;;;;;;2.60;2.00;;;;;;;;;;5055518;28;20177;-77
2022/09/04 19:23:57;;;;;;;3.43;1.90;;;;;;;;;;5055685;28;20185;-77
2022/09/04 19:27:24;;;;;;;2.67;2.20;;;;;;;;;;5056464;28;20180;-77
2022/09/04 19:30:42;;;;;;;2.87;2.13;;;;;;;;;;5044549;28;20248;-77
2022/09/04 19:33:49;;;;;;;3.37;1.70;;;;;;;;;;5032309;28;20208;-77
2022/09/04 19:36:57;;;;;;;4.80;2.23;;;;;;;;;;5044288;28;20532;-77
2022/09/04 19:40:10;;;;;;;8.50;2.10;;;;;;;;;;5020635;28;20196;-77
2022/09/04 19:43:29;;;;;;;8.03;2.10;;;;;;;;;;5033430;28;20177;-77
2022/09/04 19:47:11;;;;;;;8.43;2.40;;;;;;;;;;5043504;28;20622;-77
2022/09/04 19:50:28;;;;;;;9.00;2.30;;;;;;;;;;5031786;28;20192;-77
2022/09/04 19:53:40;;;;;;;5.60;2.30;;;;;;;;;;5043189;28;20224;-77
2022/09/04 19:56:56;;;;;;;3.57;2.20;;;;;;;;;;5042427;28;20199;-76
2022/09/04 20:00:06;;;;;;;2.37;2.10;;;;;;;;;;5054857;28;20184;-76
2022/09/04 20:03:19;;;;;;;4.77;2.17;;;;;;;;;;5042191;28;20650;-76
2022/09/04 20:06:29;;;;;;;5.87;2.40;;;;;;;;;;5019529;28;20192;-76
2022/09/04 20:09:48;;;;;;;4.40;2.27;;;;;;;;;;5030482;28;20196;-75
2022/09/04 20:13:01;;;;;;;2.50;2.30;;;;;;;;;;5042013;28;20204;-76
2022/09/04 20:16:11;;;;;;;3.47;2.37;;;;;;;;;;5054165;28;20191;-75
2022/09/04 20:19:36;;;;;;;2.60;2.40;;;;;;;;;;5030252;28;20200;-76
2022/09/04 20:22:44;;;;;;;3.57;2.67;;;;;;;;;;5041635;28;20200;-75